sensor_id;sensor_type;location;lat;lon;timestamp;temperature;humidity
20158;DHT22;10239;56.820;24.416;2023-09-12T00:00:49;17.70;99.90
20158;DHT22;10239;56.820;24.416;2023-09-12T00:03:21;17.60;99.90
20158;DHT22;10239;56.820;24.416;2023-09-12T00:05:56;17.50;99.90
20158;DHT22;10239;56.820;24.416;2023-09-12T00:08:25;17.40;99.90
20158;DHT22;10239;56.820;24.416;2023-09-12T00:11:07;17.30;99.90
20158;DHT22;10239;56.820;24.416;2023-09-12T00:13:41;17.40;99.90
20158;DHT22;10239;56.820;24.416;2023-09-12T00:16:09;17.40;99.90
20158;DHT22;10239;56.820;24.416;2023-09-12T00:18:40;17.50;99.90
20158;DHT22;10239;56.820;24.416;2023-09-12T00:21:08;17.40;99.90
20158;DHT22;10239;56.820;24.416;2023-09-12T00:23:35;17.50;99.90
20158;DHT22;10239;56.820;24.416;2023-09-12T00:26:03;17.60;99.90
20158;DHT22;10239;56.820;24.416;2023-09-12T00:28:30;17.70;99.90
20158;DHT22;10239;56.820;24.416;2023-09-12T00:30:58;17.80;99.90
20158;DHT22;10239;56.820;24.416;2023-09-12T00:33:27;17.70;99.90
20158;DHT22;10239;56.820;24.416;2023-09-12T00:35:54;17.70;99.90
20158;DHT22;10239;56.820;24.416;2023-09-12T00:38:22;17.80;99.90
20158;DHT22;10239;56.820;24.416;2023-09-12T00:40:50;17.90;99.90
20158;DHT22;10239;56.820;24.416;2023-09-12T00:43:17;17.80;99.90
20158;DHT22;10239;56.820;24.416;2023-09-12T00:45:45;17.70;99.90
20158;DHT22;10239;56.820;24.416;2023-09-12T00:48:13;17.80;99.90
20158;DHT22;10239;56.820;24.416;2023-09-12T00:50:43;17.80;99.90
20158;DHT22;10239;56.820;24.416;2023-09-12T00:53:14;17.90;99.90
20158;DHT22;10239;56.820;24.416;2023-09-12T00:55:46;17.80;99.90
20158;DHT22;10239;56.820;24.416;2023-09-12T00:58:16;17.90;99.90
20158;DHT22;10239;56.820;24.416;2023-09-12T01:00:44;17.80;99.90
20158;DHT22;10239;56.820;24.416;2023-09-12T01:03:13;17.90;99.90
20158;DHT22;10239;56.820;24.416;2023-09-12T01:05:44;17.90;99.90
20158;DHT22;10239;56.820;24.416;2023-09-12T01:08:12;17.80;99.90
20158;DHT22;10239;56.820;24.416;2023-09-12T01:10:40;17.70;99.90
20158;DHT22;10239;56.820;24.416;2023-09-12T01:13:13;17.60;99.90
20158;DHT22;10239;56.820;24.416;2023-09-12T01:15:41;17.70;99.90
20158;DHT22;10239;56.820;24.416;2023-09-12T01:18:09;17.60;99.90
20158;DHT22;10239;56.820;24.416;2023-09-12T01:20:40;17.70;99.90
20158;DHT22;10239;56.820;24.416;2023-09-12T01:23:33;17.70;99.90
20158;DHT22;10239;56.820;24.416;2023-09-12T01:28:55;17.50;99.90
20158;DHT22;10239;56.820;24.416;2023-09-12T01:31:25;17.50;99.90
20158;DHT22;10239;56.820;24.416;2023-09-12T01:33:56;17.40;99.90
20158;DHT22;10239;56.820;24.416;2023-09-12T01:36:25;17.50;99.90
20158;DHT22;10239;56.820;24.416;2023-09-12T01:38:53;17.40;99.90
20158;DHT22;10239;56.820;24.416;2023-09-12T01:41:20;17.40;99.90
20158;DHT22;10239;56.820;24.416;2023-09-12T01:43:50;17.50;99.90
20158;DHT22;10239;56.820;24.416;2023-09-12T01:46:19;17.40;99.90
20158;DHT22;10239;56.820;24.416;2023-09-12T01:48:47;17.40;99.90
20158;DHT22;10239;56.820;24.416;2023-09-12T01:51:19;17.50;99.90
20158;DHT22;10239;56.820;24.416;2023-09-12T01:53:47;17.30;99.90
20158;DHT22;10239;56.820;24.416;2023-09-12T01:56:17;17.40;99.90
20158;DHT22;10239;56.820;24.416;2023-09-12T01:58:45;17.60;99.90
20158;DHT22;10239;56.820;24.416;2023-09-12T02:01:14;17.50;99.90
20158;DHT22;10239;56.820;24.416;2023-09-12T02:03:42;17.60;99.90
20158;DHT22;10239;56.820;24.416;2023-09-12T02:06:09;17.70;99.90
20158;DHT22;10239;56.820;24.416;2023-09-12T02:08:37;17.60;99.90
20158;DHT22;10239;56.820;24.416;2023-09-12T02:11:05;17.70;99.90
20158;DHT22;10239;56.820;24.416;2023-09-12T02:13:32;17.80;99.90
20158;DHT22;10239;56.820;24.416;2023-09-12T02:16:01;17.70;99.90
20158;DHT22;10239;56.820;24.416;2023-09-12T02:18:31;17.70;99.90
20158;DHT22;10239;56.820;24.416;2023-09-12T02:20:59;17.70;99.90
20158;DHT22;10239;56.820;24.416;2023-09-12T02:23:27;17.60;99.90
20158;DHT22;10239;56.820;24.416;2023-09-12T02:25:56;17.70;99.90
20158;DHT22;10239;56.820;24.416;2023-09-12T02:28:24;17.60;99.90
20158;DHT22;10239;56.820;24.416;2023-09-12T02:30:52;17.70;99.90
20158;DHT22;10239;56.820;24.416;2023-09-12T02:33:19;17.60;99.90
20158;DHT22;10239;56.820;24.416;2023-09-12T02:35:47;17.50;99.90
20158;DHT22;10239;56.820;24.416;2023-09-12T02:38:16;17.40;99.90
20158;DHT22;10239;56.820;24.416;2023-09-12T02:40:44;17.30;99.90
20158;DHT22;10239;56.820;24.416;2023-09-12T02:43:11;17.20;99.90
20158;DHT22;10239;56.820;24.416;2023-09-12T02:45:39;17.20;99.90
20158;DHT22;10239;56.820;24.416;2023-09-12T02:48:07;17.20;99.90
20158;DHT22;10239;56.820;24.416;2023-09-12T02:50:35;17.10;99.90
20158;DHT22;10239;56.820;24.416;2023-09-12T02:53:03;17.20;99.90
20158;DHT22;10239;56.820;24.416;2023-09-12T02:55:31;17.00;99.90
20158;DHT22;10239;56.820;24.416;2023-09-12T02:57:59;17.00;99.90
20158;DHT22;10239;56.820;24.416;2023-09-12T03:00:26;16.90;99.90
20158;DHT22;10239;56.820;24.416;2023-09-12T03:02:54;17.00;99.90
20158;DHT22;10239;56.820;24.416;2023-09-12T03:05:21;17.00;99.90
20158;DHT22;10239;56.820;24.416;2023-09-12T03:07:49;17.00;99.90
20158;DHT22;10239;56.820;24.416;2023-09-12T03:10:16;16.90;99.90
20158;DHT22;10239;56.820;24.416;2023-09-12T03:12:44;17.10;99.90
20158;DHT22;10239;56.820;24.416;2023-09-12T03:15:11;17.00;99.90
20158;DHT22;10239;56.820;24.416;2023-09-12T03:17:39;17.00;99.90
20158;DHT22;10239;56.820;24.416;2023-09-12T03:20:07;16.90;99.90
20158;DHT22;10239;56.820;24.416;2023-09-12T03:22:35;17.00;99.90
20158;DHT22;10239;56.820;24.416;2023-09-12T03:25:07;17.10;99.90
20158;DHT22;10239;56.820;24.416;2023-09-12T03:27:35;17.00;99.90
20158;DHT22;10239;56.820;24.416;2023-09-12T03:30:04;16.90;99.90
20158;DHT22;10239;56.820;24.416;2023-09-12T03:32:32;16.80;99.90
20158;DHT22;10239;56.820;24.416;2023-09-12T03:35:00;16.70;99.90
20158;DHT22;10239;56.820;24.416;2023-09-12T03:37:28;16.60;99.90
20158;DHT22;10239;56.820;24.416;2023-09-12T03:39:56;16.60;99.90
20158;DHT22;10239;56.820;24.416;2023-09-12T03:42:23;16.70;99.90
20158;DHT22;10239;56.820;24.416;2023-09-12T03:45:04;16.80;99.90
20158;DHT22;10239;56.820;24.416;2023-09-12T03:47:32;16.90;99.90
20158;DHT22;10239;56.820;24.416;2023-09-12T03:50:00;16.90;99.90
20158;DHT22;10239;56.820;24.416;2023-09-12T03:52:28;16.90;99.90
20158;DHT22;10239;56.820;24.416;2023-09-12T03:54:56;17.10;99.90
20158;DHT22;10239;56.820;24.416;2023-09-12T03:57:23;17.10;99.90
20158;DHT22;10239;56.820;24.416;2023-09-12T03:59:52;17.00;99.90
20158;DHT22;10239;56.820;24.416;2023-09-12T04:02:20;17.00;99.90
20158;DHT22;10239;56.820;24.416;2023-09-12T04:04:48;17.10;99.90
20158;DHT22;10239;56.820;24.416;2023-09-12T04:07:15;16.90;99.90
20158;DHT22;10239;56.820;24.416;2023-09-12T04:09:43;17.00;99.90
20158;DHT22;10239;56.820;24.416;2023-09-12T04:12:10;17.10;99.90
20158;DHT22;10239;56.820;24.416;2023-09-12T04:14:38;17.00;99.90
20158;DHT22;10239;56.820;24.416;2023-09-12T04:17:06;17.20;99.90
20158;DHT22;10239;56.820;24.416;2023-09-12T04:19:35;17.30;99.90
20158;DHT22;10239;56.820;24.416;2023-09-12T04:22:03;17.40;99.90
20158;DHT22;10239;56.820;24.416;2023-09-12T04:24:31;17.60;99.90
20158;DHT22;10239;56.820;24.416;2023-09-12T04:26:59;17.70;99.90
20158;DHT22;10239;56.820;24.416;2023-09-12T04:29:27;17.70;99.90
20158;DHT22;10239;56.820;24.416;2023-09-12T04:31:55;17.70;99.90
20158;DHT22;10239;56.820;24.416;2023-09-12T04:34:27;17.60;99.90
20158;DHT22;10239;56.820;24.416;2023-09-12T04:36:55;17.60;99.90
20158;DHT22;10239;56.820;24.416;2023-09-12T04:39:24;17.60;99.90
20158;DHT22;10239;56.820;24.416;2023-09-12T04:41:52;17.60;99.90
20158;DHT22;10239;56.820;24.416;2023-09-12T04:44:19;17.60;99.90
20158;DHT22;10239;56.820;24.416;2023-09-12T04:46:47;17.60;99.90
20158;DHT22;10239;56.820;24.416;2023-09-12T04:49:16;17.60;99.90
20158;DHT22;10239;56.820;24.416;2023-09-12T04:51:43;17.70;99.90
20158;DHT22;10239;56.820;24.416;2023-09-12T04:54:11;17.90;99.90
20158;DHT22;10239;56.820;24.416;2023-09-12T04:56:39;18.80;99.90
20158;DHT22;10239;56.820;24.416;2023-09-12T04:59:06;19.80;99.90
20158;DHT22;10239;56.820;24.416;2023-09-12T05:01:34;20.70;99.90
20158;DHT22;10239;56.820;24.416;2023-09-12T05:04:02;20.80;99.90
20158;DHT22;10239;56.820;24.416;2023-09-12T05:06:30;21.10;99.90
20158;DHT22;10239;56.820;24.416;2023-09-12T05:08:58;21.70;99.90
20158;DHT22;10239;56.820;24.416;2023-09-12T05:11:26;22.10;99.90
20158;DHT22;10239;56.820;24.416;2023-09-12T05:13:54;22.00;99.90
20158;DHT22;10239;56.820;24.416;2023-09-12T05:16:22;22.30;99.90
20158;DHT22;10239;56.820;24.416;2023-09-12T05:18:50;22.80;99.90
20158;DHT22;10239;56.820;24.416;2023-09-12T05:21:19;23.20;99.90
20158;DHT22;10239;56.820;24.416;2023-09-12T05:23:47;23.40;99.90
20158;DHT22;10239;56.820;24.416;2023-09-12T05:26:15;24.10;99.90
20158;DHT22;10239;56.820;24.416;2023-09-12T05:28:42;24.30;99.90
20158;DHT22;10239;56.820;24.416;2023-09-12T05:31:10;24.60;99.90
20158;DHT22;10239;56.820;24.416;2023-09-12T05:33:38;25.20;99.90
20158;DHT22;10239;56.820;24.416;2023-09-12T05:36:06;25.70;99.90
20158;DHT22;10239;56.820;24.416;2023-09-12T05:38:33;24.80;99.90
20158;DHT22;10239;56.820;24.416;2023-09-12T05:41:01;24.70;99.90
20158;DHT22;10239;56.820;24.416;2023-09-12T05:43:29;25.00;99.90
20158;DHT22;10239;56.820;24.416;2023-09-12T05:45:57;25.30;99.90
20158;DHT22;10239;56.820;24.416;2023-09-12T05:48:25;24.70;99.90
20158;DHT22;10239;56.820;24.416;2023-09-12T05:50:53;24.80;99.90
20158;DHT22;10239;56.820;24.416;2023-09-12T05:53:21;25.00;99.90
20158;DHT22;10239;56.820;24.416;2023-09-12T05:55:49;25.20;99.90
20158;DHT22;10239;56.820;24.416;2023-09-12T05:58:17;25.70;99.90
20158;DHT22;10239;56.820;24.416;2023-09-12T06:00:45;25.30;99.90
20158;DHT22;10239;56.820;24.416;2023-09-12T06:03:15;25.50;99.90
20158;DHT22;10239;56.820;24.416;2023-09-12T06:05:44;25.50;99.90
20158;DHT22;10239;56.820;24.416;2023-09-12T06:08:11;25.80;99.90
20158;DHT22;10239;56.820;24.416;2023-09-12T06:10:39;26.20;99.90
20158;DHT22;10239;56.820;24.416;2023-09-12T06:13:07;26.40;99.90
20158;DHT22;10239;56.820;24.416;2023-09-12T06:15:37;26.00;99.90
20158;DHT22;10239;56.820;24.416;2023-09-12T06:18:05;26.30;99.90
20158;DHT22;10239;56.820;24.416;2023-09-12T06:20:32;26.10;99.90
20158;DHT22;10239;56.820;24.416;2023-09-12T06:23:00;26.90;99.90
20158;DHT22;10239;56.820;24.416;2023-09-12T06:25:27;27.40;99.90
20158;DHT22;10239;56.820;24.416;2023-09-12T06:27:56;28.30;99.90
20158;DHT22;10239;56.820;24.416;2023-09-12T06:30:24;29.10;99.90
20158;DHT22;10239;56.820;24.416;2023-09-12T06:32:51;29.30;99.90
20158;DHT22;10239;56.820;24.416;2023-09-12T06:35:19;28.40;99.90
20158;DHT22;10239;56.820;24.416;2023-09-12T06:37:47;28.50;99.90
20158;DHT22;10239;56.820;24.416;2023-09-12T06:40:15;28.90;99.90
20158;DHT22;10239;56.820;24.416;2023-09-12T06:42:43;29.10;99.90
20158;DHT22;10239;56.820;24.416;2023-09-12T06:45:11;28.10;99.90
20158;DHT22;10239;56.820;24.416;2023-09-12T06:47:39;28.30;99.90
20158;DHT22;10239;56.820;24.416;2023-09-12T06:50:07;29.00;99.90
20158;DHT22;10239;56.820;24.416;2023-09-12T06:52:41;28.50;99.90
20158;DHT22;10239;56.820;24.416;2023-09-12T06:55:09;27.50;99.90
20158;DHT22;10239;56.820;24.416;2023-09-12T06:57:36;28.30;99.90
20158;DHT22;10239;56.820;24.416;2023-09-12T07:00:05;29.10;99.90
20158;DHT22;10239;56.820;24.416;2023-09-12T07:02:36;29.00;99.90
20158;DHT22;10239;56.820;24.416;2023-09-12T07:05:04;28.50;99.90
20158;DHT22;10239;56.820;24.416;2023-09-12T07:07:34;27.90;99.90
20158;DHT22;10239;56.820;24.416;2023-09-12T07:10:04;28.80;99.90
20158;DHT22;10239;56.820;24.416;2023-09-12T07:12:50;29.50;99.90
20158;DHT22;10239;56.820;24.416;2023-09-12T07:15:18;29.60;99.90
20158;DHT22;10239;56.820;24.416;2023-09-12T07:17:46;30.20;99.90
20158;DHT22;10239;56.820;24.416;2023-09-12T07:20:14;30.70;99.90
20158;DHT22;10239;56.820;24.416;2023-09-12T07:22:43;31.30;99.90
20158;DHT22;10239;56.820;24.416;2023-09-12T07:25:11;30.70;99.90
20158;DHT22;10239;56.820;24.416;2023-09-12T07:27:39;30.50;99.90
20158;DHT22;10239;56.820;24.416;2023-09-12T07:30:08;30.10;99.90
20158;DHT22;10239;56.820;24.416;2023-09-12T07:32:35;29.60;99.90
20158;DHT22;10239;56.820;24.416;2023-09-12T07:35:03;29.80;99.90
20158;DHT22;10239;56.820;24.416;2023-09-12T07:37:31;29.80;99.90
20158;DHT22;10239;56.820;24.416;2023-09-12T07:39:59;29.10;99.90
20158;DHT22;10239;56.820;24.416;2023-09-12T07:42:26;29.50;99.90
20158;DHT22;10239;56.820;24.416;2023-09-12T07:44:54;30.60;99.90
20158;DHT22;10239;56.820;24.416;2023-09-12T07:47:22;29.70;99.90
20158;DHT22;10239;56.820;24.416;2023-09-12T07:49:53;30.60;99.90
20158;DHT22;10239;56.820;24.416;2023-09-12T07:52:22;31.70;99.90
20158;DHT22;10239;56.820;24.416;2023-09-12T07:54:50;31.80;99.90
20158;DHT22;10239;56.820;24.416;2023-09-12T07:57:20;31.70;99.90
20158;DHT22;10239;56.820;24.416;2023-09-12T07:59:47;32.10;99.90
20158;DHT22;10239;56.820;24.416;2023-09-12T08:02:15;32.60;99.90
20158;DHT22;10239;56.820;24.416;2023-09-12T08:04:42;32.40;99.90
20158;DHT22;10239;56.820;24.416;2023-09-12T08:07:10;32.00;99.90
20158;DHT22;10239;56.820;24.416;2023-09-12T08:09:55;32.40;99.90
20158;DHT22;10239;56.820;24.416;2023-09-12T08:12:24;32.40;99.90
20158;DHT22;10239;56.820;24.416;2023-09-12T08:14:54;32.50;99.90
20158;DHT22;10239;56.820;24.416;2023-09-12T08:17:23;31.10;99.90
20158;DHT22;10239;56.820;24.416;2023-09-12T08:19:50;31.90;99.90
20158;DHT22;10239;56.820;24.416;2023-09-12T08:22:18;32.00;99.90
20158;DHT22;10239;56.820;24.416;2023-09-12T08:24:47;31.30;99.90
20158;DHT22;10239;56.820;24.416;2023-09-12T08:27:14;32.10;99.90
20158;DHT22;10239;56.820;24.416;2023-09-12T08:29:43;32.60;99.90
20158;DHT22;10239;56.820;24.416;2023-09-12T08:32:11;33.20;99.90
20158;DHT22;10239;56.820;24.416;2023-09-12T08:34:39;32.60;99.90
20158;DHT22;10239;56.820;24.416;2023-09-12T08:37:06;32.90;99.90
20158;DHT22;10239;56.820;24.416;2023-09-12T08:39:46;33.40;99.90
20158;DHT22;10239;56.820;24.416;2023-09-12T08:42:15;33.50;99.90
20158;DHT22;10239;56.820;24.416;2023-09-12T08:44:44;34.10;99.90
20158;DHT22;10239;56.820;24.416;2023-09-12T08:47:14;33.90;99.90
20158;DHT22;10239;56.820;24.416;2023-09-12T08:49:43;32.80;99.90
20158;DHT22;10239;56.820;24.416;2023-09-12T08:52:11;33.00;99.90
20158;DHT22;10239;56.820;24.416;2023-09-12T08:54:39;32.30;99.90
20158;DHT22;10239;56.820;24.416;2023-09-12T08:57:07;33.20;99.90
20158;DHT22;10239;56.820;24.416;2023-09-12T08:59:36;32.60;99.90
20158;DHT22;10239;56.820;24.416;2023-09-12T09:02:08;32.40;99.90
20158;DHT22;10239;56.820;24.416;2023-09-12T09:04:39;31.90;99.90
20158;DHT22;10239;56.820;24.416;2023-09-12T09:07:11;31.70;99.90
20158;DHT22;10239;56.820;24.416;2023-09-12T09:09:41;31.60;99.90
20158;DHT22;10239;56.820;24.416;2023-09-12T09:12:09;32.30;99.90
20158;DHT22;10239;56.820;24.416;2023-09-12T09:14:37;31.80;99.90
20158;DHT22;10239;56.820;24.416;2023-09-12T09:17:05;32.60;99.90
20158;DHT22;10239;56.820;24.416;2023-09-12T09:19:42;32.50;99.90
20158;DHT22;10239;56.820;24.416;2023-09-12T09:22:10;32.50;99.90
20158;DHT22;10239;56.820;24.416;2023-09-12T09:24:38;32.40;99.90
20158;DHT22;10239;56.820;24.416;2023-09-12T09:27:05;32.20;99.90
20158;DHT22;10239;56.820;24.416;2023-09-12T09:29:47;32.80;99.90
20158;DHT22;10239;56.820;24.416;2023-09-12T09:32:18;32.30;99.90
20158;DHT22;10239;56.820;24.416;2023-09-12T09:34:49;31.50;99.90
20158;DHT22;10239;56.820;24.416;2023-09-12T09:37:17;31.00;99.90
20158;DHT22;10239;56.820;24.416;2023-09-12T09:39:48;31.20;99.90
20158;DHT22;10239;56.820;24.416;2023-09-12T09:42:20;31.80;99.90
20158;DHT22;10239;56.820;24.416;2023-09-12T09:44:48;31.50;99.90
20158;DHT22;10239;56.820;24.416;2023-09-12T09:47:18;31.90;99.90
20158;DHT22;10239;56.820;24.416;2023-09-12T09:49:47;32.00;99.90
20158;DHT22;10239;56.820;24.416;2023-09-12T09:52:14;32.00;99.90
20158;DHT22;10239;56.820;24.416;2023-09-12T09:54:45;31.30;99.90
20158;DHT22;10239;56.820;24.416;2023-09-12T09:57:13;30.80;99.90
20158;DHT22;10239;56.820;24.416;2023-09-12T09:59:40;31.10;99.90
20158;DHT22;10239;56.820;24.416;2023-09-12T10:02:15;31.30;99.90
20158;DHT22;10239;56.820;24.416;2023-09-12T10:04:44;32.00;99.90
20158;DHT22;10239;56.820;24.416;2023-09-12T10:07:14;32.00;99.90
20158;DHT22;10239;56.820;24.416;2023-09-12T10:09:43;31.70;99.90
20158;DHT22;10239;56.820;24.416;2023-09-12T10:12:12;30.90;99.90
20158;DHT22;10239;56.820;24.416;2023-09-12T10:14:40;30.60;99.90
20158;DHT22;10239;56.820;24.416;2023-09-12T10:17:12;30.20;99.90
20158;DHT22;10239;56.820;24.416;2023-09-12T10:19:51;29.70;99.90
20158;DHT22;10239;56.820;24.416;2023-09-12T10:22:37;30.60;99.90
20158;DHT22;10239;56.820;24.416;2023-09-12T10:25:07;30.70;99.90
20158;DHT22;10239;56.820;24.416;2023-09-12T10:27:35;30.90;99.90
20158;DHT22;10239;56.820;24.416;2023-09-12T10:30:04;31.10;99.90
20158;DHT22;10239;56.820;24.416;2023-09-12T10:32:34;31.40;99.90
20158;DHT22;10239;56.820;24.416;2023-09-12T10:35:03;31.40;99.90
20158;DHT22;10239;56.820;24.416;2023-09-12T10:37:32;30.80;99.90
20158;DHT22;10239;56.820;24.416;2023-09-12T10:40:05;30.60;99.90
20158;DHT22;10239;56.820;24.416;2023-09-12T10:42:35;30.40;99.90
20158;DHT22;10239;56.820;24.416;2023-09-12T10:45:06;30.00;99.90
20158;DHT22;10239;56.820;24.416;2023-09-12T10:47:36;29.80;99.90
20158;DHT22;10239;56.820;24.416;2023-09-12T10:50:05;29.90;99.90
20158;DHT22;10239;56.820;24.416;2023-09-12T10:52:34;30.30;99.90
20158;DHT22;10239;56.820;24.416;2023-09-12T10:55:07;30.10;99.90
20158;DHT22;10239;56.820;24.416;2023-09-12T10:57:35;30.70;99.90
20158;DHT22;10239;56.820;24.416;2023-09-12T11:00:23;30.90;99.90
20158;DHT22;10239;56.820;24.416;2023-09-12T11:02:50;31.30;99.90
20158;DHT22;10239;56.820;24.416;2023-09-12T11:08:00;31.20;99.90
20158;DHT22;10239;56.820;24.416;2023-09-12T11:10:28;30.60;99.90
20158;DHT22;10239;56.820;24.416;2023-09-12T11:12:59;30.30;99.90
20158;DHT22;10239;56.820;24.416;2023-09-12T11:15:28;30.90;99.90
20158;DHT22;10239;56.820;24.416;2023-09-12T11:18:03;31.10;99.90
20158;DHT22;10239;56.820;24.416;2023-09-12T11:21:03;31.40;99.90
20158;DHT22;10239;56.820;24.416;2023-09-12T11:23:31;31.10;99.90
20158;DHT22;10239;56.820;24.416;2023-09-12T11:26:08;30.40;99.90
20158;DHT22;10239;56.820;24.416;2023-09-12T11:28:38;30.40;99.90
20158;DHT22;10239;56.820;24.416;2023-09-12T11:31:06;29.60;99.90
20158;DHT22;10239;56.820;24.416;2023-09-12T11:33:34;29.10;99.90
20158;DHT22;10239;56.820;24.416;2023-09-12T11:36:02;28.90;99.90
20158;DHT22;10239;56.820;24.416;2023-09-12T11:38:31;29.00;99.90
20158;DHT22;10239;56.820;24.416;2023-09-12T11:40:59;29.50;99.90
20158;DHT22;10239;56.820;24.416;2023-09-12T11:43:28;29.60;99.90
20158;DHT22;10239;56.820;24.416;2023-09-12T11:45:56;28.80;99.90
20158;DHT22;10239;56.820;24.416;2023-09-12T11:48:24;28.70;99.90
20158;DHT22;10239;56.820;24.416;2023-09-12T11:50:53;28.80;99.90
20158;DHT22;10239;56.820;24.416;2023-09-12T11:53:22;28.80;99.90
20158;DHT22;10239;56.820;24.416;2023-09-12T11:55:55;28.50;99.90
20158;DHT22;10239;56.820;24.416;2023-09-12T11:58:24;28.50;99.90
20158;DHT22;10239;56.820;24.416;2023-09-12T12:00:54;28.20;99.90
20158;DHT22;10239;56.820;24.416;2023-09-12T12:03:26;28.30;99.90
20158;DHT22;10239;56.820;24.416;2023-09-12T12:05:55;28.30;99.90
20158;DHT22;10239;56.820;24.416;2023-09-12T12:08:23;28.10;99.90
20158;DHT22;10239;56.820;24.416;2023-09-12T12:10:54;28.20;99.90
20158;DHT22;10239;56.820;24.416;2023-09-12T12:13:23;28.30;99.90
20158;DHT22;10239;56.820;24.416;2023-09-12T12:15:52;28.30;99.90
20158;DHT22;10239;56.820;24.416;2023-09-12T12:18:20;28.10;99.90
20158;DHT22;10239;56.820;24.416;2023-09-12T12:20:48;28.20;99.90
20158;DHT22;10239;56.820;24.416;2023-09-12T12:23:16;28.10;99.90
20158;DHT22;10239;56.820;24.416;2023-09-12T12:25:44;28.30;99.90
20158;DHT22;10239;56.820;24.416;2023-09-12T12:28:11;28.10;99.90
20158;DHT22;10239;56.820;24.416;2023-09-12T12:30:39;28.10;99.90
20158;DHT22;10239;56.820;24.416;2023-09-12T12:33:08;28.60;99.90
20158;DHT22;10239;56.820;24.416;2023-09-12T12:36:03;28.80;99.90
20158;DHT22;10239;56.820;24.416;2023-09-12T12:38:37;28.80;99.90
20158;DHT22;10239;56.820;24.416;2023-09-12T12:41:29;28.30;99.90
20158;DHT22;10239;56.820;24.416;2023-09-12T12:44:15;28.20;99.90
20158;DHT22;10239;56.820;24.416;2023-09-12T12:46:55;28.40;99.90
20158;DHT22;10239;56.820;24.416;2023-09-12T12:49:23;28.60;99.90
20158;DHT22;10239;56.820;24.416;2023-09-12T12:51:50;29.00;99.90
20158;DHT22;10239;56.820;24.416;2023-09-12T12:54:22;29.30;99.90
20158;DHT22;10239;56.820;24.416;2023-09-12T12:56:50;29.20;99.90
20158;DHT22;10239;56.820;24.416;2023-09-12T12:59:19;29.20;99.90
20158;DHT22;10239;56.820;24.416;2023-09-12T13:01:47;29.00;99.90
20158;DHT22;10239;56.820;24.416;2023-09-12T13:04:20;28.90;99.90
20158;DHT22;10239;56.820;24.416;2023-09-12T13:06:48;28.60;99.90
20158;DHT22;10239;56.820;24.416;2023-09-12T13:09:16;28.80;99.90
20158;DHT22;10239;56.820;24.416;2023-09-12T13:11:44;28.70;99.90
20158;DHT22;10239;56.820;24.416;2023-09-12T13:14:11;28.70;99.90
20158;DHT22;10239;56.820;24.416;2023-09-12T13:16:40;28.80;99.90
20158;DHT22;10239;56.820;24.416;2023-09-12T13:19:09;28.70;99.90
20158;DHT22;10239;56.820;24.416;2023-09-12T13:21:38;28.60;99.90
20158;DHT22;10239;56.820;24.416;2023-09-12T13:24:06;28.90;99.90
20158;DHT22;10239;56.820;24.416;2023-09-12T13:26:34;28.40;99.90
20158;DHT22;10239;56.820;24.416;2023-09-12T13:29:02;28.10;99.90
20158;DHT22;10239;56.820;24.416;2023-09-12T13:31:29;28.20;99.90
20158;DHT22;10239;56.820;24.416;2023-09-12T13:33:57;28.40;99.90
20158;DHT22;10239;56.820;24.416;2023-09-12T13:36:25;28.10;99.90
20158;DHT22;10239;56.820;24.416;2023-09-12T13:38:52;27.90;99.90
20158;DHT22;10239;56.820;24.416;2023-09-12T13:41:20;28.20;99.90
20158;DHT22;10239;56.820;24.416;2023-09-12T13:43:50;28.30;99.90
20158;DHT22;10239;56.820;24.416;2023-09-12T13:46:17;28.40;99.90
20158;DHT22;10239;56.820;24.416;2023-09-12T13:48:45;28.50;99.90
20158;DHT22;10239;56.820;24.416;2023-09-12T13:51:15;28.50;99.90
20158;DHT22;10239;56.820;24.416;2023-09-12T13:53:42;28.70;99.90
20158;DHT22;10239;56.820;24.416;2023-09-12T13:56:10;28.80;99.90
20158;DHT22;10239;56.820;24.416;2023-09-12T13:58:38;28.60;99.90
20158;DHT22;10239;56.820;24.416;2023-09-12T14:01:10;28.50;99.90
20158;DHT22;10239;56.820;24.416;2023-09-12T14:03:44;28.20;99.90
20158;DHT22;10239;56.820;24.416;2023-09-12T14:06:12;28.20;99.90
20158;DHT22;10239;56.820;24.416;2023-09-12T14:08:40;27.70;99.90
20158;DHT22;10239;56.820;24.416;2023-09-12T14:11:08;27.70;99.90
20158;DHT22;10239;56.820;24.416;2023-09-12T14:13:53;27.90;99.90
20158;DHT22;10239;56.820;24.416;2023-09-12T14:16:39;27.70;99.90
20158;DHT22;10239;56.820;24.416;2023-09-12T14:19:09;27.70;99.90
20158;DHT22;10239;56.820;24.416;2023-09-12T14:21:37;27.80;99.90
20158;DHT22;10239;56.820;24.416;2023-09-12T14:24:06;27.70;99.90
20158;DHT22;10239;56.820;24.416;2023-09-12T14:26:34;27.80;99.90
20158;DHT22;10239;56.820;24.416;2023-09-12T14:29:02;27.50;99.90
20158;DHT22;10239;56.820;24.416;2023-09-12T14:31:31;27.70;99.90
20158;DHT22;10239;56.820;24.416;2023-09-12T14:33:59;27.50;99.90
20158;DHT22;10239;56.820;24.416;2023-09-12T14:36:27;27.70;99.90
20158;DHT22;10239;56.820;24.416;2023-09-12T14:38:54;27.90;99.90
20158;DHT22;10239;56.820;24.416;2023-09-12T14:41:22;28.00;99.90
20158;DHT22;10239;56.820;24.416;2023-09-12T14:43:50;28.00;99.90
20158;DHT22;10239;56.820;24.416;2023-09-12T14:46:17;27.80;99.90
20158;DHT22;10239;56.820;24.416;2023-09-12T14:48:45;27.40;99.90
20158;DHT22;10239;56.820;24.416;2023-09-12T14:51:27;27.50;99.90
20158;DHT22;10239;56.820;24.416;2023-09-12T14:53:59;27.40;99.90
20158;DHT22;10239;56.820;24.416;2023-09-12T14:56:27;27.40;99.90
20158;DHT22;10239;56.820;24.416;2023-09-12T14:58:54;27.40;99.90
20158;DHT22;10239;56.820;24.416;2023-09-12T15:01:22;27.40;99.90
20158;DHT22;10239;56.820;24.416;2023-09-12T15:03:52;27.20;99.90
20158;DHT22;10239;56.820;24.416;2023-09-12T15:06:20;27.10;99.90
20158;DHT22;10239;56.820;24.416;2023-09-12T15:08:49;27.00;99.90
20158;DHT22;10239;56.820;24.416;2023-09-12T15:11:17;27.10;99.90
20158;DHT22;10239;56.820;24.416;2023-09-12T15:13:44;26.90;99.90
20158;DHT22;10239;56.820;24.416;2023-09-12T15:16:14;26.70;99.90
20158;DHT22;10239;56.820;24.416;2023-09-12T15:18:42;26.90;99.90
20158;DHT22;10239;56.820;24.416;2023-09-12T15:21:09;26.90;99.90
20158;DHT22;10239;56.820;24.416;2023-09-12T15:23:37;26.80;99.90
20158;DHT22;10239;56.820;24.416;2023-09-12T15:26:05;26.70;99.90
20158;DHT22;10239;56.820;24.416;2023-09-12T15:28:32;26.80;99.90
20158;DHT22;10239;56.820;24.416;2023-09-12T15:31:00;26.50;99.90
20158;DHT22;10239;56.820;24.416;2023-09-12T15:33:31;26.50;99.90